createdAt,value
2019-04-10T00:07:49.941Z,90.60
2019-04-10T00:17:55.739Z,90.60
2019-04-10T00:28:01.316Z,90.80
2019-04-10T00:38:07.182Z,90.70
2019-04-10T00:48:12.915Z,90.80
2019-04-10T00:58:18.373Z,90.80
2019-04-10T01:08:25.120Z,91.00
2019-04-10T01:18:31.051Z,91.30
2019-04-10T01:28:36.793Z,91.40
2019-04-10T01:38:42.407Z,91.30
2019-04-10T01:48:47.915Z,91.00
2019-04-10T01:58:53.750Z,91.30
2019-04-10T02:09:00.375Z,91.30
2019-04-10T02:19:08.161Z,91.20
2019-04-10T02:29:13.893Z,91.10
2019-04-10T02:39:27.839Z,90.80
2019-04-10T02:49:27.864Z,90.60
2019-04-10T02:59:35.047Z,90.50
2019-04-10T03:09:52.871Z,90.30
2019-04-10T03:20:07.939Z,90.50
2019-04-10T03:30:15.245Z,95.40
2019-04-10T03:40:21.658Z,91.60
2019-04-10T03:50:27.811Z,92.30
2019-04-10T04:00:34.248Z,92.30
2019-04-10T04:10:40.460Z,92.30
2019-04-10T04:20:47.563Z,91.80
2019-04-10T04:30:53.804Z,92.20
2019-04-10T04:41:00.384Z,92.20
2019-04-10T04:51:06.719Z,92.40
2019-04-10T05:01:12.708Z,92.50
2019-04-10T05:11:18.378Z,91.80
2019-04-10T05:21:23.974Z,92.10
2019-04-10T05:31:32.217Z,92.00
2019-04-10T05:41:37.854Z,94.20
2019-04-10T05:51:53.506Z,91.30
2019-04-10T06:01:59.176Z,91.00
2019-04-10T06:12:05.776Z,88.00
2019-04-10T06:22:12.771Z,86.90
2019-04-10T06:32:19.164Z,84.00
2019-04-10T06:42:24.751Z,83.50
2019-04-10T06:52:30.444Z,81.80
2019-04-10T07:02:37.095Z,82.40
2019-04-10T07:12:43.877Z,80.00
2019-04-10T07:22:49.827Z,82.20
2019-04-10T07:32:55.461Z,79.20
2019-04-10T07:43:04.576Z,77.20
2019-04-10T07:53:10.935Z,78.50
2019-04-10T08:03:43.754Z,75.50
2019-04-10T08:13:51.184Z,74.80
2019-04-10T08:24:07.995Z,77.80
2019-04-10T08:34:13.602Z,75.50
2019-04-10T08:44:20.062Z,75.10
2019-04-10T08:54:26.601Z,75.30
2019-04-10T09:04:33.634Z,69.40
2019-04-10T09:14:41.025Z,71.70
2019-04-10T09:24:48.868Z,64.70
2019-04-10T09:34:56.259Z,61.50
2019-04-10T09:45:10.160Z,61.80
2019-04-10T09:55:20.544Z,64.70
2019-04-10T10:05:29.041Z,57.70
2019-04-10T10:15:35.837Z,61.60
2019-04-10T10:25:49.041Z,61.90
2019-04-10T10:35:57.672Z,62.30
2019-04-10T10:46:04.085Z,62.10
2019-04-10T10:56:10.406Z,62.40
2019-04-10T11:06:17.749Z,61.50
2019-04-10T11:16:24.908Z,62.60
2019-04-10T11:26:32.015Z,63.00
2019-04-10T11:36:40.065Z,63.90
2019-04-10T11:46:46.506Z,61.30
2019-04-10T11:56:55.370Z,61.30
2019-04-10T12:07:02.109Z,58.30
2019-04-10T12:17:09.677Z,58.60
2019-04-10T12:27:17.391Z,58.10
2019-04-10T12:37:25.853Z,59.50
2019-04-10T12:47:34.627Z,62.50
2019-04-10T12:57:41.343Z,60.90
2019-04-10T13:07:48.280Z,61.10
2019-04-10T13:17:54.586Z,63.40
2019-04-10T13:28:01.319Z,62.60
2019-04-10T13:38:08.773Z,60.50
2019-04-10T13:48:16.432Z,62.80
2019-04-10T13:58:29.070Z,63.20
2019-04-10T14:08:57.276Z,64.30
2019-04-10T14:18:43.427Z,65.40
2019-04-10T14:28:51.290Z,64.90
2019-04-10T14:39:08.276Z,64.40
2019-04-10T14:49:07.013Z,66.90
2019-04-10T14:59:13.635Z,64.10
2019-04-10T15:09:25.651Z,63.70
2019-04-10T15:19:30.134Z,61.50
2019-04-10T15:29:37.156Z,59.90
2019-04-10T15:39:44.827Z,59.90
2019-04-10T15:49:51.642Z,60.50
2019-04-10T15:59:58.814Z,60.60
2019-04-10T16:10:25.594Z,62.50
2019-04-10T16:20:36.818Z,62.50
2019-04-10T16:30:44.021Z,63.70
2019-04-10T16:40:50.662Z,64.20
2019-04-10T16:50:59.692Z,65.40
2019-04-10T17:01:08.361Z,69.40
2019-04-10T17:11:15.322Z,73.20
2019-04-10T17:21:22.571Z,76.00
2019-04-10T17:31:30.707Z,77.60
2019-04-10T17:41:37.681Z,78.30
2019-04-10T17:51:45.866Z,84.30
2019-04-10T18:01:53.756Z,78.90
2019-04-10T18:12:01.884Z,76.80
2019-04-10T18:22:10.021Z,76.70
2019-04-10T18:32:17.928Z,75.80
2019-04-10T18:42:28.763Z,75.70
2019-04-10T18:52:37.285Z,75.50
2019-04-10T19:03:03.413Z,77.00
2019-04-10T19:13:12.927Z,77.00
2019-04-10T19:23:21.027Z,75.20
2019-04-10T19:33:29.312Z,76.40
2019-04-10T19:43:37.901Z,76.10
2019-04-10T19:53:45.814Z,76.00
2019-04-10T20:03:54.215Z,76.50
2019-04-10T20:14:04.033Z,75.80
2019-04-10T20:24:10.490Z,75.90
2019-04-10T20:34:16.471Z,75.70
2019-04-10T20:44:22.754Z,72.60
2019-04-10T20:54:29.035Z,71.80
2019-04-10T21:04:34.630Z,72.10
2019-04-10T21:14:40.600Z,73.70
2019-04-10T21:24:46.223Z,72.40
2019-04-10T21:34:51.950Z,70.50
2019-04-10T21:44:57.522Z,88.10
2019-04-10T21:55:04.441Z,91.30
2019-04-10T22:05:12.386Z,90.20
2019-04-10T22:15:33.104Z,89.90
2019-04-10T22:25:39.505Z,88.30
2019-04-10T22:35:46.211Z,84.30
2019-04-10T22:45:52.860Z,84.40
2019-04-10T22:55:58.580Z,83.30
2019-04-10T23:06:04.905Z,82.30
2019-04-10T23:16:14.148Z,82.90
2019-04-10T23:26:18.555Z,82.30
2019-04-10T23:36:24.684Z,81.60
2019-04-10T23:46:30.568Z,81.20
2019-04-10T23:56:36.075Z,80.20
